sensor_id;sensor_type;location;lat;lon;timestamp;P1;durP1;ratioP1;P2;durP2;ratioP2
17564;SDS011;62994;52.126;5.596;2023-07-08T00:00:18;3.08;;;2.45;;
17564;SDS011;62994;52.126;5.596;2023-07-08T00:02:47;3.25;;;3.05;;
17564;SDS011;62994;52.126;5.596;2023-07-08T00:05:15;3.30;;;3.10;;
17564;SDS011;62994;52.126;5.596;2023-07-08T00:07:45;3.40;;;2.60;;
17564;SDS011;62994;52.126;5.596;2023-07-08T00:10:15;3.50;;;3.20;;
17564;SDS011;62994;52.126;5.596;2023-07-08T00:12:44;5.75;;;2.72;;
17564;SDS011;62994;52.126;5.596;2023-07-08T00:15:13;3.13;;;2.90;;
17564;SDS011;62994;52.126;5.596;2023-07-08T00:17:42;3.13;;;2.92;;
17564;SDS011;62994;52.126;5.596;2023-07-08T00:20:16;3.25;;;2.80;;
17564;SDS011;62994;52.126;5.596;2023-07-08T00:22:47;3.03;;;2.78;;
17564;SDS011;62994;52.126;5.596;2023-07-08T00:25:16;2.80;;;2.70;;
17564;SDS011;62994;52.126;5.596;2023-07-08T00:27:44;6.00;;;2.72;;
17564;SDS011;62994;52.126;5.596;2023-07-08T00:30:22;2.90;;;2.80;;
17564;SDS011;62994;52.126;5.596;2023-07-08T00:32:50;4.32;;;3.15;;
17564;SDS011;62994;52.126;5.596;2023-07-08T00:35:30;4.90;;;3.30;;
17564;SDS011;62994;52.126;5.596;2023-07-08T00:38:00;3.70;;;2.58;;
17564;SDS011;62994;52.126;5.596;2023-07-08T00:40:29;2.78;;;2.60;;
17564;SDS011;62994;52.126;5.596;2023-07-08T00:42:59;4.70;;;2.83;;
17564;SDS011;62994;52.126;5.596;2023-07-08T00:45:34;3.05;;;2.85;;
17564;SDS011;62994;52.126;5.596;2023-07-08T00:48:12;3.10;;;2.90;;
17564;SDS011;62994;52.126;5.596;2023-07-08T00:50:44;7.40;;;2.80;;
17564;SDS011;62994;52.126;5.596;2023-07-08T00:53:27;4.97;;;2.90;;
17564;SDS011;62994;52.126;5.596;2023-07-08T00:55:57;3.53;;;2.92;;
17564;SDS011;62994;52.126;5.596;2023-07-08T00:58:30;3.67;;;2.83;;
17564;SDS011;62994;52.126;5.596;2023-07-08T01:01:00;8.75;;;3.08;;
17564;SDS011;62994;52.126;5.596;2023-07-08T01:03:29;3.47;;;2.90;;
17564;SDS011;62994;52.126;5.596;2023-07-08T01:05:58;3.20;;;3.00;;
17564;SDS011;62994;52.126;5.596;2023-07-08T01:08:26;3.92;;;2.95;;
17564;SDS011;62994;52.126;5.596;2023-07-08T01:10:57;3.58;;;3.25;;
17564;SDS011;62994;52.126;5.596;2023-07-08T01:13:27;3.65;;;2.83;;
17564;SDS011;62994;52.126;5.596;2023-07-08T01:15:58;3.88;;;3.22;;
17564;SDS011;62994;52.126;5.596;2023-07-08T01:18:26;3.83;;;3.22;;
17564;SDS011;62994;52.126;5.596;2023-07-08T01:20:53;3.42;;;3.00;;
17564;SDS011;62994;52.126;5.596;2023-07-08T01:23:22;5.15;;;3.10;;
17564;SDS011;62994;52.126;5.596;2023-07-08T01:25:50;3.38;;;3.17;;
17564;SDS011;62994;52.126;5.596;2023-07-08T01:28:18;4.07;;;2.92;;
17564;SDS011;62994;52.126;5.596;2023-07-08T01:30:46;3.15;;;2.88;;
17564;SDS011;62994;52.126;5.596;2023-07-08T01:33:16;3.22;;;2.92;;
17564;SDS011;62994;52.126;5.596;2023-07-08T01:35:45;3.67;;;3.20;;
17564;SDS011;62994;52.126;5.596;2023-07-08T01:38:15;4.05;;;3.25;;
17564;SDS011;62994;52.126;5.596;2023-07-08T01:40:50;3.45;;;3.03;;
17564;SDS011;62994;52.126;5.596;2023-07-08T01:43:18;3.33;;;3.13;;
17564;SDS011;62994;52.126;5.596;2023-07-08T01:45:45;4.00;;;3.00;;
17564;SDS011;62994;52.126;5.596;2023-07-08T01:48:18;3.03;;;2.83;;
17564;SDS011;62994;52.126;5.596;2023-07-08T01:50:48;3.47;;;3.20;;
17564;SDS011;62994;52.126;5.596;2023-07-08T01:53:22;3.33;;;3.13;;
17564;SDS011;62994;52.126;5.596;2023-07-08T01:55:55;3.15;;;2.78;;
17564;SDS011;62994;52.126;5.596;2023-07-08T01:58:22;4.40;;;3.03;;
17564;SDS011;62994;52.126;5.596;2023-07-08T02:00:49;4.13;;;3.00;;
17564;SDS011;62994;52.126;5.596;2023-07-08T02:03:17;3.20;;;3.08;;
17564;SDS011;62994;52.126;5.596;2023-07-08T02:05:44;3.25;;;3.05;;
17564;SDS011;62994;52.126;5.596;2023-07-08T02:08:11;4.72;;;3.17;;
17564;SDS011;62994;52.126;5.596;2023-07-08T02:10:38;3.45;;;3.15;;
17564;SDS011;62994;52.126;5.596;2023-07-08T02:13:07;3.33;;;2.90;;
17564;SDS011;62994;52.126;5.596;2023-07-08T02:15:34;7.57;;;2.88;;
17564;SDS011;62994;52.126;5.596;2023-07-08T02:18:01;3.35;;;3.15;;
17564;SDS011;62994;52.126;5.596;2023-07-08T02:20:28;3.33;;;3.13;;
17564;SDS011;62994;52.126;5.596;2023-07-08T02:22:55;3.33;;;3.08;;
17564;SDS011;62994;52.126;5.596;2023-07-08T02:25:23;4.70;;;3.22;;
17564;SDS011;62994;52.126;5.596;2023-07-08T02:27:50;9.68;;;3.20;;
17564;SDS011;62994;52.126;5.596;2023-07-08T02:30:21;3.50;;;3.20;;
17564;SDS011;62994;52.126;5.596;2023-07-08T02:32:48;3.15;;;2.95;;
17564;SDS011;62994;52.126;5.596;2023-07-08T02:35:22;3.20;;;3.00;;
17564;SDS011;62994;52.126;5.596;2023-07-08T02:37:50;3.47;;;3.22;;
17564;SDS011;62994;52.126;5.596;2023-07-08T02:40:17;3.42;;;3.15;;
17564;SDS011;62994;52.126;5.596;2023-07-08T02:42:44;3.35;;;3.05;;
17564;SDS011;62994;52.126;5.596;2023-07-08T02:45:11;2.90;;;2.70;;
17564;SDS011;62994;52.126;5.596;2023-07-08T02:47:40;3.08;;;2.88;;
17564;SDS011;62994;52.126;5.596;2023-07-08T02:50:08;3.60;;;2.90;;
17564;SDS011;62994;52.126;5.596;2023-07-08T02:52:35;3.30;;;3.08;;
17564;SDS011;62994;52.126;5.596;2023-07-08T02:55:03;3.25;;;2.97;;
17564;SDS011;62994;52.126;5.596;2023-07-08T02:57:31;4.22;;;3.15;;
17564;SDS011;62994;52.126;5.596;2023-07-08T02:59:58;3.42;;;2.90;;
17564;SDS011;62994;52.126;5.596;2023-07-08T03:02:26;3.83;;;2.88;;
17564;SDS011;62994;52.126;5.596;2023-07-08T03:04:55;3.80;;;3.15;;
17564;SDS011;62994;52.126;5.596;2023-07-08T03:07:26;5.45;;;3.05;;
17564;SDS011;62994;52.126;5.596;2023-07-08T03:09:53;3.72;;;3.47;;
17564;SDS011;62994;52.126;5.596;2023-07-08T03:12:19;3.83;;;3.20;;
17564;SDS011;62994;52.126;5.596;2023-07-08T03:14:46;6.47;;;3.70;;
17564;SDS011;62994;52.126;5.596;2023-07-08T03:17:13;3.45;;;2.90;;
17564;SDS011;62994;52.126;5.596;2023-07-08T03:19:43;4.50;;;3.25;;
17564;SDS011;62994;52.126;5.596;2023-07-08T03:22:11;3.55;;;3.25;;
17564;SDS011;62994;52.126;5.596;2023-07-08T03:24:38;3.60;;;3.30;;
17564;SDS011;62994;52.126;5.596;2023-07-08T03:27:11;3.25;;;3.00;;
17564;SDS011;62994;52.126;5.596;2023-07-08T03:29:38;3.20;;;3.10;;
17564;SDS011;62994;52.126;5.596;2023-07-08T03:32:06;3.47;;;3.17;;
17564;SDS011;62994;52.126;5.596;2023-07-08T03:34:35;5.57;;;3.08;;
17564;SDS011;62994;52.126;5.596;2023-07-08T03:37:03;3.55;;;3.25;;
17564;SDS011;62994;52.126;5.596;2023-07-08T03:39:32;3.63;;;3.42;;
17564;SDS011;62994;52.126;5.596;2023-07-08T03:41:59;3.78;;;3.58;;
17564;SDS011;62994;52.126;5.596;2023-07-08T03:44:26;3.35;;;3.15;;
17564;SDS011;62994;52.126;5.596;2023-07-08T03:46:54;3.38;;;3.08;;
17564;SDS011;62994;52.126;5.596;2023-07-08T03:49:21;3.80;;;3.35;;
17564;SDS011;62994;52.126;5.596;2023-07-08T03:51:49;3.20;;;2.90;;
17564;SDS011;62994;52.126;5.596;2023-07-08T03:54:19;3.22;;;3.03;;
17564;SDS011;62994;52.126;5.596;2023-07-08T03:56:49;3.83;;;3.45;;
17564;SDS011;62994;52.126;5.596;2023-07-08T03:59:16;6.32;;;3.50;;
17564;SDS011;62994;52.126;5.596;2023-07-08T04:01:43;3.40;;;3.10;;
17564;SDS011;62994;52.126;5.596;2023-07-08T04:04:11;3.30;;;3.00;;
17564;SDS011;62994;52.126;5.596;2023-07-08T04:06:39;3.45;;;3.15;;
17564;SDS011;62994;52.126;5.596;2023-07-08T04:09:06;6.00;;;3.30;;
17564;SDS011;62994;52.126;5.596;2023-07-08T04:11:33;3.67;;;3.22;;
17564;SDS011;62994;52.126;5.596;2023-07-08T04:14:02;3.75;;;3.45;;
17564;SDS011;62994;52.126;5.596;2023-07-08T04:16:29;5.03;;;2.90;;
17564;SDS011;62994;52.126;5.596;2023-07-08T04:19:01;10.82;;;3.40;;
17564;SDS011;62994;52.126;5.596;2023-07-08T04:21:29;4.15;;;3.45;;
17564;SDS011;62994;52.126;5.596;2023-07-08T04:23:56;3.17;;;2.97;;
17564;SDS011;62994;52.126;5.596;2023-07-08T04:26:25;3.17;;;2.97;;
17564;SDS011;62994;52.126;5.596;2023-07-08T04:28:52;3.55;;;3.13;;
17564;SDS011;62994;52.126;5.596;2023-07-08T04:31:20;3.20;;;3.00;;
17564;SDS011;62994;52.126;5.596;2023-07-08T04:33:50;5.30;;;3.15;;
17564;SDS011;62994;52.126;5.596;2023-07-08T04:36:17;3.30;;;3.08;;
17564;SDS011;62994;52.126;5.596;2023-07-08T04:38:46;8.27;;;3.70;;
17564;SDS011;62994;52.126;5.596;2023-07-08T04:41:13;7.07;;;3.55;;
17564;SDS011;62994;52.126;5.596;2023-07-08T04:43:40;3.42;;;3.17;;
17564;SDS011;62994;52.126;5.596;2023-07-08T04:46:10;6.65;;;3.47;;
17564;SDS011;62994;52.126;5.596;2023-07-08T04:48:51;3.83;;;3.63;;
17564;SDS011;62994;52.126;5.596;2023-07-08T04:51:18;6.22;;;2.92;;
17564;SDS011;62994;52.126;5.596;2023-07-08T04:53:45;3.90;;;3.60;;
17564;SDS011;62994;52.126;5.596;2023-07-08T04:56:12;4.20;;;3.20;;
17564;SDS011;62994;52.126;5.596;2023-07-08T04:58:39;3.92;;;3.10;;
17564;SDS011;62994;52.126;5.596;2023-07-08T05:01:06;3.13;;;2.83;;
17564;SDS011;62994;52.126;5.596;2023-07-08T05:03:33;4.15;;;3.45;;
17564;SDS011;62994;52.126;5.596;2023-07-08T05:06:02;3.50;;;3.30;;
17564;SDS011;62994;52.126;5.596;2023-07-08T05:08:29;3.35;;;3.03;;
17564;SDS011;62994;52.126;5.596;2023-07-08T05:10:56;4.03;;;3.63;;
17564;SDS011;62994;52.126;5.596;2023-07-08T05:13:24;3.60;;;3.30;;
17564;SDS011;62994;52.126;5.596;2023-07-08T05:15:51;3.65;;;3.35;;
17564;SDS011;62994;52.126;5.596;2023-07-08T05:18:18;4.45;;;3.13;;
17564;SDS011;62994;52.126;5.596;2023-07-08T05:20:49;5.53;;;3.00;;
17564;SDS011;62994;52.126;5.596;2023-07-08T05:23:18;7.00;;;3.47;;
17564;SDS011;62994;52.126;5.596;2023-07-08T05:25:45;5.75;;;3.53;;
17564;SDS011;62994;52.126;5.596;2023-07-08T05:28:12;4.03;;;3.45;;
17564;SDS011;62994;52.126;5.596;2023-07-08T05:30:41;3.65;;;2.97;;
17564;SDS011;62994;52.126;5.596;2023-07-08T05:33:08;4.03;;;3.13;;
17564;SDS011;62994;52.126;5.596;2023-07-08T05:35:35;6.10;;;3.08;;
17564;SDS011;62994;52.126;5.596;2023-07-08T05:38:07;3.38;;;3.17;;
17564;SDS011;62994;52.126;5.596;2023-07-08T05:40:36;4.13;;;3.00;;
17564;SDS011;62994;52.126;5.596;2023-07-08T05:43:06;3.17;;;2.97;;
17564;SDS011;62994;52.126;5.596;2023-07-08T05:45:33;4.32;;;3.10;;
17564;SDS011;62994;52.126;5.596;2023-07-08T05:48:00;4.25;;;2.90;;
17564;SDS011;62994;52.126;5.596;2023-07-08T05:50:27;3.30;;;3.10;;
17564;SDS011;62994;52.126;5.596;2023-07-08T05:52:54;2.72;;;2.55;;
17564;SDS011;62994;52.126;5.596;2023-07-08T05:55:21;5.55;;;3.13;;
17564;SDS011;62994;52.126;5.596;2023-07-08T05:57:49;4.35;;;3.15;;
17564;SDS011;62994;52.126;5.596;2023-07-08T06:00:16;3.35;;;2.63;;
17564;SDS011;62994;52.126;5.596;2023-07-08T06:02:43;3.38;;;3.08;;
17564;SDS011;62994;52.126;5.596;2023-07-08T06:05:10;2.75;;;2.55;;
17564;SDS011;62994;52.126;5.596;2023-07-08T06:07:37;3.53;;;3.15;;
17564;SDS011;62994;52.126;5.596;2023-07-08T06:10:05;3.20;;;2.97;;
17564;SDS011;62994;52.126;5.596;2023-07-08T06:12:32;3.17;;;2.88;;
17564;SDS011;62994;52.126;5.596;2023-07-08T06:15:01;3.47;;;2.75;;
17564;SDS011;62994;52.126;5.596;2023-07-08T06:17:28;3.65;;;3.42;;
17564;SDS011;62994;52.126;5.596;2023-07-08T06:19:55;3.25;;;3.10;;
17564;SDS011;62994;52.126;5.596;2023-07-08T06:22:22;3.17;;;2.88;;
17564;SDS011;62994;52.126;5.596;2023-07-08T06:24:49;5.85;;;3.00;;
17564;SDS011;62994;52.126;5.596;2023-07-08T06:27:16;3.35;;;3.05;;
17564;SDS011;62994;52.126;5.596;2023-07-08T06:29:44;5.05;;;2.70;;
17564;SDS011;62994;52.126;5.596;2023-07-08T06:32:13;2.95;;;2.75;;
17564;SDS011;62994;52.126;5.596;2023-07-08T06:34:40;3.10;;;2.90;;
17564;SDS011;62994;52.126;5.596;2023-07-08T06:37:07;3.13;;;2.92;;
17564;SDS011;62994;52.126;5.596;2023-07-08T06:39:34;3.35;;;3.15;;
17564;SDS011;62994;52.126;5.596;2023-07-08T06:42:01;3.05;;;2.85;;
17564;SDS011;62994;52.126;5.596;2023-07-08T06:44:29;2.97;;;2.78;;
17564;SDS011;62994;52.126;5.596;2023-07-08T06:46:56;3.38;;;3.17;;
17564;SDS011;62994;52.126;5.596;2023-07-08T06:49:24;2.70;;;2.60;;
17564;SDS011;62994;52.126;5.596;2023-07-08T06:51:51;3.38;;;2.72;;
17564;SDS011;62994;52.126;5.596;2023-07-08T06:54:18;5.22;;;3.00;;
17564;SDS011;62994;52.126;5.596;2023-07-08T06:56:45;4.57;;;2.92;;
17564;SDS011;62994;52.126;5.596;2023-07-08T06:59:12;3.47;;;3.22;;
17564;SDS011;62994;52.126;5.596;2023-07-08T07:01:39;3.00;;;2.80;;
17564;SDS011;62994;52.126;5.596;2023-07-08T07:04:06;3.85;;;2.60;;
17564;SDS011;62994;52.126;5.596;2023-07-08T07:06:34;2.72;;;2.63;;
17564;SDS011;62994;52.126;5.596;2023-07-08T07:09:01;3.25;;;3.05;;
17564;SDS011;62994;52.126;5.596;2023-07-08T07:11:28;3.58;;;3.33;;
17564;SDS011;62994;52.126;5.596;2023-07-08T07:13:55;3.20;;;3.00;;
17564;SDS011;62994;52.126;5.596;2023-07-08T07:16:22;3.80;;;3.25;;
17564;SDS011;62994;52.126;5.596;2023-07-08T07:18:49;2.80;;;2.70;;
17564;SDS011;62994;52.126;5.596;2023-07-08T07:21:17;3.17;;;2.97;;
17564;SDS011;62994;52.126;5.596;2023-07-08T07:23:45;7.15;;;3.65;;
17564;SDS011;62994;52.126;5.596;2023-07-08T07:26:12;3.38;;;3.17;;
17564;SDS011;62994;52.126;5.596;2023-07-08T07:28:39;5.95;;;3.30;;
17564;SDS011;62994;52.126;5.596;2023-07-08T07:31:06;3.20;;;3.00;;
17564;SDS011;62994;52.126;5.596;2023-07-08T07:33:36;3.10;;;2.78;;
17564;SDS011;62994;52.126;5.596;2023-07-08T07:36:03;3.35;;;3.15;;
17564;SDS011;62994;52.126;5.596;2023-07-08T07:38:32;2.60;;;2.50;;
17564;SDS011;62994;52.126;5.596;2023-07-08T07:41:01;3.55;;;3.35;;
17564;SDS011;62994;52.126;5.596;2023-07-08T07:43:31;3.30;;;3.10;;
17564;SDS011;62994;52.126;5.596;2023-07-08T07:45:58;3.60;;;3.20;;
17564;SDS011;62994;52.126;5.596;2023-07-08T07:48:25;3.58;;;3.22;;
17564;SDS011;62994;52.126;5.596;2023-07-08T07:50:52;2.95;;;2.80;;
17564;SDS011;62994;52.126;5.596;2023-07-08T07:53:19;3.35;;;3.05;;
17564;SDS011;62994;52.126;5.596;2023-07-08T07:55:46;3.42;;;3.22;;
17564;SDS011;62994;52.126;5.596;2023-07-08T07:58:14;3.38;;;3.10;;
17564;SDS011;62994;52.126;5.596;2023-07-08T08:00:41;3.40;;;3.15;;
17564;SDS011;62994;52.126;5.596;2023-07-08T08:03:08;3.65;;;3.35;;
17564;SDS011;62994;52.126;5.596;2023-07-08T08:05:35;5.68;;;3.22;;
17564;SDS011;62994;52.126;5.596;2023-07-08T08:08:02;3.17;;;2.97;;
17564;SDS011;62994;52.126;5.596;2023-07-08T08:10:29;4.05;;;3.63;;
17564;SDS011;62994;52.126;5.596;2023-07-08T08:12:57;6.63;;;3.30;;
17564;SDS011;62994;52.126;5.596;2023-07-08T08:15:26;3.60;;;3.40;;
17564;SDS011;62994;52.126;5.596;2023-07-08T08:17:53;4.13;;;3.75;;
17564;SDS011;62994;52.126;5.596;2023-07-08T08:20:21;4.97;;;3.53;;
17564;SDS011;62994;52.126;5.596;2023-07-08T08:22:52;3.60;;;3.30;;
17564;SDS011;62994;52.126;5.596;2023-07-08T08:25:20;3.88;;;3.67;;
17564;SDS011;62994;52.126;5.596;2023-07-08T08:27:49;3.17;;;2.97;;
17564;SDS011;62994;52.126;5.596;2023-07-08T08:30:17;3.97;;;3.67;;
17564;SDS011;62994;52.126;5.596;2023-07-08T08:32:46;4.03;;;3.50;;
17564;SDS011;62994;52.126;5.596;2023-07-08T08:35:13;5.18;;;3.95;;
17564;SDS011;62994;52.126;5.596;2023-07-08T08:37:40;4.82;;;3.92;;
17564;SDS011;62994;52.126;5.596;2023-07-08T08:40:08;6.72;;;4.00;;
17564;SDS011;62994;52.126;5.596;2023-07-08T08:42:40;4.07;;;3.78;;
17564;SDS011;62994;52.126;5.596;2023-07-08T08:45:10;4.03;;;3.63;;
17564;SDS011;62994;52.126;5.596;2023-07-08T08:47:42;3.85;;;3.47;;
17564;SDS011;62994;52.126;5.596;2023-07-08T08:50:20;3.80;;;3.60;;
17564;SDS011;62994;52.126;5.596;2023-07-08T08:52:52;4.00;;;3.70;;
17564;SDS011;62994;52.126;5.596;2023-07-08T08:55:22;4.07;;;3.88;;
17564;SDS011;62994;52.126;5.596;2023-07-08T08:57:52;4.20;;;3.97;;
17564;SDS011;62994;52.126;5.596;2023-07-08T09:00:27;4.60;;;3.67;;
17564;SDS011;62994;52.126;5.596;2023-07-08T09:03:03;4.80;;;3.97;;
17564;SDS011;62994;52.126;5.596;2023-07-08T09:05:36;3.95;;;3.75;;
17564;SDS011;62994;52.126;5.596;2023-07-08T09:08:04;4.22;;;3.95;;
17564;SDS011;62994;52.126;5.596;2023-07-08T09:10:42;3.83;;;3.63;;
17564;SDS011;62994;52.126;5.596;2023-07-08T09:13:14;4.28;;;3.97;;
17564;SDS011;62994;52.126;5.596;2023-07-08T09:15:46;4.55;;;3.90;;
17564;SDS011;62994;52.126;5.596;2023-07-08T09:18:17;4.13;;;3.70;;
17564;SDS011;62994;52.126;5.596;2023-07-08T09:20:51;4.28;;;3.97;;
17564;SDS011;62994;52.126;5.596;2023-07-08T09:23:22;4.03;;;3.72;;
17564;SDS011;62994;52.126;5.596;2023-07-08T09:25:54;5.15;;;4.47;;
17564;SDS011;62994;52.126;5.596;2023-07-08T09:31:23;4.68;;;4.25;;
17564;SDS011;62994;52.126;5.596;2023-07-08T09:33:53;5.20;;;4.70;;
17564;SDS011;62994;52.126;5.596;2023-07-08T09:36:31;5.07;;;4.78;;
17564;SDS011;62994;52.126;5.596;2023-07-08T09:38:58;4.47;;;4.28;;
17564;SDS011;62994;52.126;5.596;2023-07-08T09:41:30;5.43;;;5.10;;
17564;SDS011;62994;52.126;5.596;2023-07-08T09:44:06;4.97;;;4.70;;
17564;SDS011;62994;52.126;5.596;2023-07-08T09:46:40;5.35;;;4.97;;
17564;SDS011;62994;52.126;5.596;2023-07-08T09:49:19;5.60;;;5.20;;
17564;SDS011;62994;52.126;5.596;2023-07-08T09:51:48;4.70;;;4.40;;
17564;SDS011;62994;52.126;5.596;2023-07-08T09:54:16;5.65;;;4.32;;
17564;SDS011;62994;52.126;5.596;2023-07-08T09:56:47;5.63;;;5.20;;
17564;SDS011;62994;52.126;5.596;2023-07-08T09:59:28;5.68;;;5.38;;
17564;SDS011;62994;52.126;5.596;2023-07-08T10:01:59;5.45;;;5.15;;
17564;SDS011;62994;52.126;5.596;2023-07-08T10:04:29;6.13;;;5.80;;
17564;SDS011;62994;52.126;5.596;2023-07-08T10:06:56;5.32;;;5.03;;
17564;SDS011;62994;52.126;5.596;2023-07-08T10:09:25;5.28;;;4.88;;
17564;SDS011;62994;52.126;5.596;2023-07-08T10:11:54;5.18;;;4.82;;
17564;SDS011;62994;52.126;5.596;2023-07-08T10:14:27;5.50;;;5.13;;
17564;SDS011;62994;52.126;5.596;2023-07-08T10:16:56;5.13;;;4.72;;
17564;SDS011;62994;52.126;5.596;2023-07-08T10:19:23;5.03;;;4.72;;
17564;SDS011;62994;52.126;5.596;2023-07-08T10:22:02;5.07;;;4.78;;
17564;SDS011;62994;52.126;5.596;2023-07-08T10:24:46;5.50;;;5.07;;
17564;SDS011;62994;52.126;5.596;2023-07-08T10:27:22;5.10;;;4.80;;
17564;SDS011;62994;52.126;5.596;2023-07-08T10:29:58;4.68;;;4.47;;
17564;SDS011;62994;52.126;5.596;2023-07-08T10:32:32;5.65;;;5.15;;
17564;SDS011;62994;52.126;5.596;2023-07-08T10:35:12;4.88;;;4.57;;
17564;SDS011;62994;52.126;5.596;2023-07-08T10:37:47;5.43;;;4.95;;
17564;SDS011;62994;52.126;5.596;2023-07-08T10:40:34;5.47;;;5.07;;
17564;SDS011;62994;52.126;5.596;2023-07-08T10:46:13;5.57;;;5.28;;
17564;SDS011;62994;52.126;5.596;2023-07-08T10:48:55;5.53;;;5.03;;
17564;SDS011;62994;52.126;5.596;2023-07-08T10:51:38;4.70;;;4.40;;
17564;SDS011;62994;52.126;5.596;2023-07-08T10:54:14;5.40;;;5.03;;
17564;SDS011;62994;52.126;5.596;2023-07-08T10:57:10;9.07;;;5.63;;
17564;SDS011;62994;52.126;5.596;2023-07-08T10:59:52;5.40;;;5.00;;
17564;SDS011;62994;52.126;5.596;2023-07-08T11:02:52;6.07;;;5.60;;
17564;SDS011;62994;52.126;5.596;2023-07-08T11:05:36;5.90;;;5.40;;
17564;SDS011;62994;52.126;5.596;2023-07-08T11:08:10;4.43;;;4.22;;
17564;SDS011;62994;52.126;5.596;2023-07-08T11:10:51;5.32;;;4.93;;
17564;SDS011;62994;52.126;5.596;2023-07-08T11:13:24;5.60;;;5.30;;
17564;SDS011;62994;52.126;5.596;2023-07-08T11:15:54;6.20;;;5.80;;
17564;SDS011;62994;52.126;5.596;2023-07-08T11:18:29;6.35;;;5.85;;
17564;SDS011;62994;52.126;5.596;2023-07-08T11:21:05;5.93;;;5.53;;
17564;SDS011;62994;52.126;5.596;2023-07-08T11:23:37;6.25;;;5.85;;
17564;SDS011;62994;52.126;5.596;2023-07-08T11:26:12;6.28;;;5.88;;
17564;SDS011;62994;52.126;5.596;2023-07-08T11:28:44;6.05;;;5.75;;
17564;SDS011;62994;52.126;5.596;2023-07-08T11:31:17;6.45;;;5.93;;
17564;SDS011;62994;52.126;5.596;2023-07-08T11:33:44;5.88;;;5.47;;
17564;SDS011;62994;52.126;5.596;2023-07-08T11:36:12;6.78;;;6.18;;
17564;SDS011;62994;52.126;5.596;2023-07-08T11:38:46;6.35;;;6.00;;
17564;SDS011;62994;52.126;5.596;2023-07-08T11:41:17;5.80;;;5.40;;
17564;SDS011;62994;52.126;5.596;2023-07-08T11:43:47;6.82;;;6.30;;
17564;SDS011;62994;52.126;5.596;2023-07-08T11:46:18;6.00;;;5.70;;
17564;SDS011;62994;52.126;5.596;2023-07-08T11:48:51;5.63;;;5.20;;
17564;SDS011;62994;52.126;5.596;2023-07-08T11:51:20;5.35;;;5.10;;
17564;SDS011;62994;52.126;5.596;2023-07-08T11:53:51;5.65;;;5.25;;
17564;SDS011;62994;52.126;5.596;2023-07-08T11:56:28;6.03;;;5.53;;
17564;SDS011;62994;52.126;5.596;2023-07-08T11:59:12;7.85;;;6.13;;
17564;SDS011;62994;52.126;5.596;2023-07-08T12:01:46;6.28;;;5.88;;
17564;SDS011;62994;52.126;5.596;2023-07-08T12:04:24;6.18;;;5.63;;
17564;SDS011;62994;52.126;5.596;2023-07-08T12:09:48;6.32;;;5.93;;
17564;SDS011;62994;52.126;5.596;2023-07-08T12:12:27;5.82;;;5.25;;
17564;SDS011;62994;52.126;5.596;2023-07-08T12:14:59;7.50;;;6.10;;
17564;SDS011;62994;52.126;5.596;2023-07-08T12:17:32;6.50;;;5.85;;
17564;SDS011;62994;52.126;5.596;2023-07-08T12:19:59;6.20;;;5.50;;
17564;SDS011;62994;52.126;5.596;2023-07-08T12:22:29;5.90;;;5.50;;
17564;SDS011;62994;52.126;5.596;2023-07-08T12:24:58;5.93;;;5.57;;
17564;SDS011;62994;52.126;5.596;2023-07-08T12:27:31;6.50;;;6.00;;
17564;SDS011;62994;52.126;5.596;2023-07-08T12:29:58;5.60;;;5.30;;
17564;SDS011;62994;52.126;5.596;2023-07-08T12:32:25;6.43;;;5.78;;
17564;SDS011;62994;52.126;5.596;2023-07-08T12:34:54;6.40;;;5.82;;
17564;SDS011;62994;52.126;5.596;2023-07-08T12:37:22;5.60;;;5.22;;
17564;SDS011;62994;52.126;5.596;2023-07-08T12:39:58;5.78;;;5.38;;
17564;SDS011;62994;52.126;5.596;2023-07-08T12:42:29;6.65;;;6.05;;
17564;SDS011;62994;52.126;5.596;2023-07-08T12:44:58;5.63;;;5.22;;
17564;SDS011;62994;52.126;5.596;2023-07-08T12:47:25;5.97;;;5.47;;
17564;SDS011;62994;52.126;5.596;2023-07-08T12:49:52;5.80;;;5.30;;
17564;SDS011;62994;52.126;5.596;2023-07-08T12:52:20;5.55;;;5.15;;
17564;SDS011;62994;52.126;5.596;2023-07-08T12:54:48;5.57;;;5.03;;
17564;SDS011;62994;52.126;5.596;2023-07-08T12:57:15;6.03;;;4.90;;
17564;SDS011;62994;52.126;5.596;2023-07-08T12:59:45;5.82;;;5.43;;
17564;SDS011;62994;52.126;5.596;2023-07-08T13:02:14;6.38;;;5.68;;
17564;SDS011;62994;52.126;5.596;2023-07-08T13:04:44;6.13;;;5.72;;
17564;SDS011;62994;52.126;5.596;2023-07-08T13:07:13;5.80;;;5.30;;
17564;SDS011;62994;52.126;5.596;2023-07-08T13:09:50;5.45;;;5.15;;
17564;SDS011;62994;52.126;5.596;2023-07-08T13:12:19;5.45;;;5.10;;
17564;SDS011;62994;52.126;5.596;2023-07-08T13:14:51;7.13;;;5.72;;
17564;SDS011;62994;52.126;5.596;2023-07-08T13:17:19;6.07;;;5.57;;
17564;SDS011;62994;52.126;5.596;2023-07-08T13:19:47;5.63;;;5.28;;
17564;SDS011;62994;52.126;5.596;2023-07-08T13:22:16;5.55;;;5.25;;
17564;SDS011;62994;52.126;5.596;2023-07-08T13:24:44;5.57;;;5.13;;
17564;SDS011;62994;52.126;5.596;2023-07-08T13:27:14;5.30;;;5.10;;
17564;SDS011;62994;52.126;5.596;2023-07-08T13:29:47;5.50;;;5.13;;
17564;SDS011;62994;52.126;5.596;2023-07-08T13:32:15;5.93;;;5.50;;
17564;SDS011;62994;52.126;5.596;2023-07-08T13:34:42;5.85;;;5.35;;
17564;SDS011;62994;52.126;5.596;2023-07-08T13:37:10;5.25;;;4.80;;
17564;SDS011;62994;52.126;5.596;2023-07-08T13:39:42;5.35;;;4.85;;
17564;SDS011;62994;52.126;5.596;2023-07-08T13:42:11;6.22;;;4.85;;
17564;SDS011;62994;52.126;5.596;2023-07-08T13:44:42;5.00;;;4.68;;
17564;SDS011;62994;52.126;5.596;2023-07-08T13:47:22;5.50;;;4.95;;
17564;SDS011;62994;52.126;5.596;2023-07-08T13:49:55;5.97;;;5.35;;
17564;SDS011;62994;52.126;5.596;2023-07-08T13:52:26;6.70;;;4.85;;
17564;SDS011;62994;52.126;5.596;2023-07-08T13:54:54;6.13;;;5.40;;
17564;SDS011;62994;52.126;5.596;2023-07-08T13:57:28;5.00;;;4.80;;
17564;SDS011;62994;52.126;5.596;2023-07-08T13:59:58;5.43;;;5.03;;
17564;SDS011;62994;52.126;5.596;2023-07-08T14:02:27;6.43;;;5.22;;
17564;SDS011;62994;52.126;5.596;2023-07-08T14:04:56;5.18;;;4.68;;
17564;SDS011;62994;52.126;5.596;2023-07-08T14:07:25;5.50;;;5.13;;
17564;SDS011;62994;52.126;5.596;2023-07-08T14:09:53;9.30;;;5.20;;
17564;SDS011;62994;52.126;5.596;2023-07-08T14:12:20;5.35;;;5.03;;
17564;SDS011;62994;52.126;5.596;2023-07-08T14:14:47;5.35;;;4.93;;
17564;SDS011;62994;52.126;5.596;2023-07-08T14:17:19;4.88;;;4.55;;
17564;SDS011;62994;52.126;5.596;2023-07-08T14:19:51;5.40;;;5.03;;
17564;SDS011;62994;52.126;5.596;2023-07-08T14:22:21;5.90;;;5.18;;
17564;SDS011;62994;52.126;5.596;2023-07-08T14:24:50;5.57;;;5.03;;
17564;SDS011;62994;52.126;5.596;2023-07-08T14:27:17;5.30;;;4.63;;
17564;SDS011;62994;52.126;5.596;2023-07-08T14:29:45;4.70;;;4.50;;
17564;SDS011;62994;52.126;5.596;2023-07-08T14:32:16;5.60;;;5.10;;
17564;SDS011;62994;52.126;5.596;2023-07-08T14:34:48;5.82;;;4.82;;
17564;SDS011;62994;52.126;5.596;2023-07-08T14:37:19;5.82;;;4.95;;
17564;SDS011;62994;52.126;5.596;2023-07-08T14:39:47;5.75;;;5.32;;
17564;SDS011;62994;52.126;5.596;2023-07-08T14:42:15;4.97;;;4.78;;
17564;SDS011;62994;52.126;5.596;2023-07-08T14:44:45;5.38;;;4.97;;
17564;SDS011;62994;52.126;5.596;2023-07-08T14:47:15;5.32;;;4.85;;
17564;SDS011;62994;52.126;5.596;2023-07-08T14:49:44;6.00;;;5.35;;
17564;SDS011;62994;52.126;5.596;2023-07-08T14:52:13;5.60;;;5.20;;
17564;SDS011;62994;52.126;5.596;2023-07-08T14:54:40;5.90;;;5.30;;
17564;SDS011;62994;52.126;5.596;2023-07-08T14:57:07;5.35;;;5.00;;
17564;SDS011;62994;52.126;5.596;2023-07-08T14:59:38;11.13;;;5.35;;
17564;SDS011;62994;52.126;5.596;2023-07-08T15:02:14;5.53;;;5.18;;
17564;SDS011;62994;52.126;5.596;2023-07-08T15:04:45;7.70;;;4.68;;
17564;SDS011;62994;52.126;5.596;2023-07-08T15:07:13;6.30;;;5.65;;
17564;SDS011;62994;52.126;5.596;2023-07-08T15:09:40;7.38;;;5.32;;
17564;SDS011;62994;52.126;5.596;2023-07-08T15:12:08;5.78;;;5.32;;